Semmes, AL (36575)

4:04 PM CDT on September 04, 2015 (GMT -0500)
The Legends At Magnolia Grove | | Change Station
CLOSE
Current Station
Personal Weather Station
Location: Mobile, AL
Elevation: 171 ft
Nearby Weather Stations

Elev 171 ft 30.74 °N, 88.20 °W | Updated 6 seconds ago

Overcast
Overcast
92.9 °F
Feels Like 108 °F
N
0.0
Wind Variable Wind from South
Gusts 1.0 mph

Today
High -- | Low -- °F
--% Chance of Precip.
Yesterday
High -- | Low -- °F
Precip. -- in
6:31 AM 7:12 PM
Waning Gibbous, 56% visible
Pressure 29.96 in
Visibility 10.0 miles
Clouds Scattered Clouds 4400 ft
Scattered Clouds 7000 ft
Scattered Clouds 20000 ft
Heat Index 108 °F
Dew Point 78 °F
Humidity 61%
Rainfall 0.00 in
Snow Depth Not available.
UV 5 out of 12
Pollen 8.30 out of 12
Air Quality Not available.
Flu Activity Not available.
METAR KMOB 042056Z 22011KT 10SM TS SCT044CB SCT070 SCT200 28/23 A2997 RMK AO2 TSB46 SLP144 CB OHD W-NW MOV S CB DSNT SE VCSH E T02780228 56005
Pressure 29.96 in
Visibility 10.0 miles
Clouds Scattered Clouds 4400 ft
Scattered Clouds 7000 ft
Scattered Clouds 20000 ft
Heat Index 108 °F
Dew Point 78 °F
Humidity 61%
Rainfall 0.00 in
Snow Depth Not available.
UV 5 out of 12
Pollen 8.30 out of 12
Air Quality Not available.
Flu Activity Not available.
METAR KMOB 042056Z 22011KT 10SM TS SCT044CB SCT070 SCT200 28/23 A2997 RMK AO2 TSB46 SLP144 CB OHD W-NW MOV S CB DSNT SE VCSH E T02780228 56005

10-Day Weather Forecast

×

Almanac

Astronomy

Sep. 04, 2015 Rise Set
Actual Time
Civil Twilight
Nautical Twilight
Astronomical Twilight
Moon
Length of Visible Light
Length of Day
Tomorrow will be .
, % of the Moon is Illuminated

Today's Extremes

State Highs State Lows

Community

WunderPhotos

Upload Photos

1,852,290 photos uploaded!

WunderBlogs® & News

Nearby

Air Quality

  Air Quality AQ Index Pollutant
Not available.

Snow Depth

Station Depth Elevation

Earthquake Activity

City Distance Mag. Time & Date
Minimum magnitude displayed is 2.5.

Coastal Water Temperatures

Place Temperature

Stations

Nearby Weather Stations

Station Location Temp. Windchill Dew Point Humidity Wind Precip. Elev Updated Type